sensor_id;sensor_type;location;lat;lon;timestamp;P1;durP1;ratioP1;P2;durP2;ratioP2
41693;SDS011;27377;50.666;9.150;2023-03-07T00:00:43;28.55;;;19.02;;
41693;SDS011;27377;50.666;9.150;2023-03-07T00:03:12;29.05;;;19.40;;
41693;SDS011;27377;50.666;9.150;2023-03-07T00:05:39;29.17;;;19.70;;
41693;SDS011;27377;50.666;9.150;2023-03-07T00:08:05;29.87;;;19.53;;
41693;SDS011;27377;50.666;9.150;2023-03-07T00:10:31;28.95;;;19.95;;
41693;SDS011;27377;50.666;9.150;2023-03-07T00:12:57;29.75;;;20.08;;
41693;SDS011;27377;50.666;9.150;2023-03-07T00:15:22;30.00;;;19.73;;
41693;SDS011;27377;50.666;9.150;2023-03-07T00:17:48;30.70;;;19.80;;
41693;SDS011;27377;50.666;9.150;2023-03-07T00:20:13;29.93;;;20.17;;
41693;SDS011;27377;50.666;9.150;2023-03-07T00:22:39;30.92;;;20.58;;
41693;SDS011;27377;50.666;9.150;2023-03-07T00:25:06;30.95;;;20.70;;
41693;SDS011;27377;50.666;9.150;2023-03-07T00:27:32;30.88;;;20.60;;
41693;SDS011;27377;50.666;9.150;2023-03-07T00:29:58;31.70;;;20.95;;
41693;SDS011;27377;50.666;9.150;2023-03-07T00:32:24;31.77;;;21.35;;
41693;SDS011;27377;50.666;9.150;2023-03-07T00:34:50;32.28;;;21.67;;
41693;SDS011;27377;50.666;9.150;2023-03-07T00:37:16;32.15;;;21.30;;
41693;SDS011;27377;50.666;9.150;2023-03-07T00:39:42;31.17;;;21.30;;
41693;SDS011;27377;50.666;9.150;2023-03-07T00:42:07;32.10;;;21.67;;
41693;SDS011;27377;50.666;9.150;2023-03-07T00:44:33;31.25;;;21.40;;
41693;SDS011;27377;50.666;9.150;2023-03-07T00:46:59;33.83;;;22.27;;
41693;SDS011;27377;50.666;9.150;2023-03-07T00:49:25;32.60;;;21.93;;
41693;SDS011;27377;50.666;9.150;2023-03-07T00:51:50;32.70;;;22.13;;
41693;SDS011;27377;50.666;9.150;2023-03-07T00:54:16;33.43;;;21.57;;
41693;SDS011;27377;50.666;9.150;2023-03-07T00:56:42;33.13;;;22.35;;
41693;SDS011;27377;50.666;9.150;2023-03-07T00:59:08;35.13;;;22.83;;
41693;SDS011;27377;50.666;9.150;2023-03-07T01:01:34;34.13;;;23.30;;
41693;SDS011;27377;50.666;9.150;2023-03-07T01:03:59;35.07;;;23.00;;
41693;SDS011;27377;50.666;9.150;2023-03-07T01:06:26;35.10;;;23.67;;
41693;SDS011;27377;50.666;9.150;2023-03-07T01:08:54;35.33;;;24.23;;
41693;SDS011;27377;50.666;9.150;2023-03-07T01:11:21;35.65;;;23.88;;
41693;SDS011;27377;50.666;9.150;2023-03-07T01:13:46;35.60;;;24.07;;
41693;SDS011;27377;50.666;9.150;2023-03-07T01:18:41;36.42;;;23.92;;
41693;SDS011;27377;50.666;9.150;2023-03-07T01:21:11;38.40;;;24.98;;
41693;SDS011;27377;50.666;9.150;2023-03-07T01:23:47;37.13;;;24.60;;
41693;SDS011;27377;50.666;9.150;2023-03-07T01:26:14;38.47;;;25.38;;
41693;SDS011;27377;50.666;9.150;2023-03-07T01:28:40;39.15;;;24.50;;
41693;SDS011;27377;50.666;9.150;2023-03-07T01:31:06;38.45;;;25.75;;
41693;SDS011;27377;50.666;9.150;2023-03-07T01:33:32;37.97;;;25.30;;
41693;SDS011;27377;50.666;9.150;2023-03-07T01:35:57;39.63;;;25.97;;
41693;SDS011;27377;50.666;9.150;2023-03-07T01:38:23;38.67;;;25.53;;
41693;SDS011;27377;50.666;9.150;2023-03-07T01:40:48;38.43;;;25.50;;
41693;SDS011;27377;50.666;9.150;2023-03-07T01:43:27;38.37;;;25.07;;
41693;SDS011;27377;50.666;9.150;2023-03-07T01:48:43;39.10;;;25.35;;
41693;SDS011;27377;50.666;9.150;2023-03-07T01:51:11;40.67;;;26.70;;
41693;SDS011;27377;50.666;9.150;2023-03-07T01:53:36;38.70;;;26.25;;
41693;SDS011;27377;50.666;9.150;2023-03-07T01:56:02;38.58;;;26.05;;
41693;SDS011;27377;50.666;9.150;2023-03-07T01:58:29;38.78;;;26.30;;
41693;SDS011;27377;50.666;9.150;2023-03-07T02:00:55;39.13;;;25.70;;
41693;SDS011;27377;50.666;9.150;2023-03-07T02:03:24;40.57;;;27.03;;
41693;SDS011;27377;50.666;9.150;2023-03-07T02:06:00;39.50;;;26.53;;
41693;SDS011;27377;50.666;9.150;2023-03-07T02:08:29;40.00;;;26.90;;
41693;SDS011;27377;50.666;9.150;2023-03-07T02:10:57;38.10;;;25.73;;
41693;SDS011;27377;50.666;9.150;2023-03-07T02:13:23;39.95;;;26.63;;
41693;SDS011;27377;50.666;9.150;2023-03-07T02:15:48;40.80;;;27.27;;
41693;SDS011;27377;50.666;9.150;2023-03-07T02:18:16;40.85;;;27.25;;
41693;SDS011;27377;50.666;9.150;2023-03-07T02:20:45;39.45;;;26.83;;
41693;SDS011;27377;50.666;9.150;2023-03-07T02:23:43;41.35;;;26.95;;
41693;SDS011;27377;50.666;9.150;2023-03-07T02:26:18;41.20;;;27.65;;
41693;SDS011;27377;50.666;9.150;2023-03-07T02:28:46;41.33;;;27.40;;
41693;SDS011;27377;50.666;9.150;2023-03-07T02:31:12;40.40;;;26.67;;
41693;SDS011;27377;50.666;9.150;2023-03-07T02:33:38;38.17;;;26.00;;
41693;SDS011;27377;50.666;9.150;2023-03-07T02:36:05;38.37;;;26.63;;
41693;SDS011;27377;50.666;9.150;2023-03-07T02:38:37;40.85;;;27.02;;
41693;SDS011;27377;50.666;9.150;2023-03-07T02:41:05;40.13;;;27.25;;
41693;SDS011;27377;50.666;9.150;2023-03-07T02:43:32;40.30;;;26.90;;
41693;SDS011;27377;50.666;9.150;2023-03-07T02:45:58;38.42;;;26.52;;
41693;SDS011;27377;50.666;9.150;2023-03-07T02:48:23;40.08;;;26.80;;
41693;SDS011;27377;50.666;9.150;2023-03-07T02:50:49;37.72;;;25.83;;
41693;SDS011;27377;50.666;9.150;2023-03-07T02:53:14;37.55;;;25.98;;
41693;SDS011;27377;50.666;9.150;2023-03-07T02:55:40;39.75;;;27.00;;
41693;SDS011;27377;50.666;9.150;2023-03-07T02:58:06;39.80;;;26.75;;
41693;SDS011;27377;50.666;9.150;2023-03-07T03:00:31;39.87;;;26.50;;
41693;SDS011;27377;50.666;9.150;2023-03-07T03:02:57;39.57;;;27.03;;
41693;SDS011;27377;50.666;9.150;2023-03-07T03:05:22;42.10;;;27.67;;
41693;SDS011;27377;50.666;9.150;2023-03-07T03:07:48;42.67;;;28.17;;
41693;SDS011;27377;50.666;9.150;2023-03-07T03:10:13;41.80;;;27.47;;
41693;SDS011;27377;50.666;9.150;2023-03-07T03:12:39;41.33;;;27.85;;
41693;SDS011;27377;50.666;9.150;2023-03-07T03:15:05;40.43;;;27.30;;
41693;SDS011;27377;50.666;9.150;2023-03-07T03:17:31;41.72;;;28.48;;
41693;SDS011;27377;50.666;9.150;2023-03-07T03:19:57;42.23;;;28.80;;
41693;SDS011;27377;50.666;9.150;2023-03-07T03:22:22;43.37;;;28.73;;
41693;SDS011;27377;50.666;9.150;2023-03-07T03:24:48;41.27;;;27.93;;
41693;SDS011;27377;50.666;9.150;2023-03-07T03:27:14;39.95;;;27.02;;
41693;SDS011;27377;50.666;9.150;2023-03-07T03:29:39;39.97;;;26.40;;
41693;SDS011;27377;50.666;9.150;2023-03-07T03:32:05;42.05;;;28.35;;
41693;SDS011;27377;50.666;9.150;2023-03-07T03:34:31;40.00;;;27.20;;
41693;SDS011;27377;50.666;9.150;2023-03-07T03:36:56;41.70;;;28.03;;
41693;SDS011;27377;50.666;9.150;2023-03-07T03:39:22;38.80;;;26.80;;
41693;SDS011;27377;50.666;9.150;2023-03-07T03:41:47;39.28;;;27.23;;
41693;SDS011;27377;50.666;9.150;2023-03-07T03:44:13;38.78;;;26.75;;
41693;SDS011;27377;50.666;9.150;2023-03-07T03:46:38;38.75;;;26.35;;
41693;SDS011;27377;50.666;9.150;2023-03-07T03:49:04;38.67;;;26.43;;
41693;SDS011;27377;50.666;9.150;2023-03-07T03:51:29;37.27;;;25.87;;
41693;SDS011;27377;50.666;9.150;2023-03-07T03:53:56;39.72;;;27.27;;
41693;SDS011;27377;50.666;9.150;2023-03-07T03:56:23;38.25;;;25.83;;
41693;SDS011;27377;50.666;9.150;2023-03-07T03:58:51;36.33;;;26.00;;
41693;SDS011;27377;50.666;9.150;2023-03-07T04:01:19;37.33;;;24.87;;
41693;SDS011;27377;50.666;9.150;2023-03-07T04:03:48;35.10;;;24.52;;
41693;SDS011;27377;50.666;9.150;2023-03-07T04:06:17;36.15;;;24.95;;
41693;SDS011;27377;50.666;9.150;2023-03-07T04:08:44;33.83;;;23.60;;
41693;SDS011;27377;50.666;9.150;2023-03-07T04:11:10;33.40;;;23.58;;
41693;SDS011;27377;50.666;9.150;2023-03-07T04:13:36;34.20;;;23.80;;
41693;SDS011;27377;50.666;9.150;2023-03-07T04:16:02;33.45;;;23.85;;
41693;SDS011;27377;50.666;9.150;2023-03-07T04:18:28;31.67;;;22.80;;
41693;SDS011;27377;50.666;9.150;2023-03-07T04:20:54;32.73;;;23.17;;
41693;SDS011;27377;50.666;9.150;2023-03-07T04:23:20;33.53;;;23.57;;
41693;SDS011;27377;50.666;9.150;2023-03-07T04:25:57;31.75;;;22.50;;
41693;SDS011;27377;50.666;9.150;2023-03-07T04:28:24;31.45;;;23.05;;
41693;SDS011;27377;50.666;9.150;2023-03-07T04:30:52;31.35;;;22.27;;
41693;SDS011;27377;50.666;9.150;2023-03-07T04:33:18;31.27;;;22.35;;
41693;SDS011;27377;50.666;9.150;2023-03-07T04:35:44;32.40;;;23.25;;
41693;SDS011;27377;50.666;9.150;2023-03-07T04:38:11;31.70;;;22.35;;
41693;SDS011;27377;50.666;9.150;2023-03-07T04:40:37;32.17;;;22.57;;
41693;SDS011;27377;50.666;9.150;2023-03-07T04:43:03;32.35;;;23.27;;
41693;SDS011;27377;50.666;9.150;2023-03-07T04:45:29;32.27;;;22.93;;
41693;SDS011;27377;50.666;9.150;2023-03-07T04:48:01;30.73;;;22.10;;
41693;SDS011;27377;50.666;9.150;2023-03-07T04:50:27;33.20;;;22.92;;
41693;SDS011;27377;50.666;9.150;2023-03-07T04:52:52;33.87;;;22.73;;
41693;SDS011;27377;50.666;9.150;2023-03-07T04:55:18;30.37;;;21.40;;
41693;SDS011;27377;50.666;9.150;2023-03-07T04:57:43;29.77;;;21.50;;
41693;SDS011;27377;50.666;9.150;2023-03-07T05:00:09;32.53;;;22.70;;
41693;SDS011;27377;50.666;9.150;2023-03-07T05:02:35;30.88;;;22.30;;
41693;SDS011;27377;50.666;9.150;2023-03-07T05:05:01;30.35;;;21.63;;
41693;SDS011;27377;50.666;9.150;2023-03-07T05:07:27;30.85;;;21.40;;
41693;SDS011;27377;50.666;9.150;2023-03-07T05:09:56;30.98;;;22.55;;
41693;SDS011;27377;50.666;9.150;2023-03-07T05:12:22;32.05;;;21.92;;
41693;SDS011;27377;50.666;9.150;2023-03-07T05:14:49;29.08;;;21.45;;
41693;SDS011;27377;50.666;9.150;2023-03-07T05:17:15;32.50;;;21.85;;
41693;SDS011;27377;50.666;9.150;2023-03-07T05:19:41;29.08;;;21.42;;
41693;SDS011;27377;50.666;9.150;2023-03-07T05:22:09;28.20;;;20.50;;
41693;SDS011;27377;50.666;9.150;2023-03-07T05:24:44;27.98;;;20.98;;
41693;SDS011;27377;50.666;9.150;2023-03-07T05:27:12;29.17;;;20.90;;
41693;SDS011;27377;50.666;9.150;2023-03-07T05:29:37;29.63;;;21.17;;
41693;SDS011;27377;50.666;9.150;2023-03-07T05:32:06;29.55;;;20.77;;
41693;SDS011;27377;50.666;9.150;2023-03-07T05:34:34;30.65;;;21.67;;
41693;SDS011;27377;50.666;9.150;2023-03-07T05:37:02;29.80;;;21.67;;
41693;SDS011;27377;50.666;9.150;2023-03-07T05:39:28;28.52;;;21.20;;
41693;SDS011;27377;50.666;9.150;2023-03-07T05:41:54;29.00;;;20.50;;
41693;SDS011;27377;50.666;9.150;2023-03-07T05:44:23;27.85;;;20.77;;
41693;SDS011;27377;50.666;9.150;2023-03-07T05:46:49;27.70;;;20.27;;
41693;SDS011;27377;50.666;9.150;2023-03-07T05:49:14;26.40;;;19.70;;
41693;SDS011;27377;50.666;9.150;2023-03-07T05:51:41;27.83;;;20.38;;
41693;SDS011;27377;50.666;9.150;2023-03-07T05:54:06;27.88;;;20.20;;
41693;SDS011;27377;50.666;9.150;2023-03-07T05:56:32;26.63;;;20.07;;
41693;SDS011;27377;50.666;9.150;2023-03-07T05:58:58;28.55;;;20.35;;
41693;SDS011;27377;50.666;9.150;2023-03-07T06:01:24;29.03;;;20.00;;
41693;SDS011;27377;50.666;9.150;2023-03-07T06:03:53;28.58;;;20.10;;
41693;SDS011;27377;50.666;9.150;2023-03-07T06:06:24;28.30;;;19.95;;
41693;SDS011;27377;50.666;9.150;2023-03-07T06:08:53;27.85;;;20.15;;
41693;SDS011;27377;50.666;9.150;2023-03-07T06:11:22;27.42;;;20.10;;
41693;SDS011;27377;50.666;9.150;2023-03-07T06:13:48;27.45;;;19.65;;
41693;SDS011;27377;50.666;9.150;2023-03-07T06:16:21;29.27;;;20.83;;
41693;SDS011;27377;50.666;9.150;2023-03-07T06:18:46;29.48;;;20.13;;
41693;SDS011;27377;50.666;9.150;2023-03-07T06:21:13;29.02;;;20.35;;
41693;SDS011;27377;50.666;9.150;2023-03-07T06:23:44;27.20;;;20.30;;
41693;SDS011;27377;50.666;9.150;2023-03-07T06:26:13;29.13;;;20.57;;
41693;SDS011;27377;50.666;9.150;2023-03-07T06:28:39;27.60;;;20.45;;
41693;SDS011;27377;50.666;9.150;2023-03-07T06:31:09;29.35;;;21.20;;
41693;SDS011;27377;50.666;9.150;2023-03-07T06:33:36;28.10;;;21.13;;
41693;SDS011;27377;50.666;9.150;2023-03-07T06:36:06;28.03;;;20.70;;
41693;SDS011;27377;50.666;9.150;2023-03-07T06:38:34;29.30;;;21.45;;
41693;SDS011;27377;50.666;9.150;2023-03-07T06:41:00;27.70;;;20.33;;
41693;SDS011;27377;50.666;9.150;2023-03-07T06:43:26;29.57;;;21.30;;
41693;SDS011;27377;50.666;9.150;2023-03-07T06:45:52;29.17;;;21.17;;
41693;SDS011;27377;50.666;9.150;2023-03-07T06:48:18;28.80;;;21.27;;
41693;SDS011;27377;50.666;9.150;2023-03-07T06:50:44;29.60;;;21.73;;
41693;SDS011;27377;50.666;9.150;2023-03-07T06:53:09;29.60;;;21.37;;
41693;SDS011;27377;50.666;9.150;2023-03-07T06:55:35;30.43;;;22.33;;
41693;SDS011;27377;50.666;9.150;2023-03-07T06:58:01;31.15;;;22.65;;
41693;SDS011;27377;50.666;9.150;2023-03-07T07:00:26;34.47;;;22.73;;
41693;SDS011;27377;50.666;9.150;2023-03-07T07:02:52;32.77;;;23.43;;
41693;SDS011;27377;50.666;9.150;2023-03-07T07:05:18;33.93;;;23.93;;
41693;SDS011;27377;50.666;9.150;2023-03-07T07:07:43;33.23;;;23.43;;
41693;SDS011;27377;50.666;9.150;2023-03-07T07:10:09;33.13;;;24.30;;
41693;SDS011;27377;50.666;9.150;2023-03-07T07:12:35;33.35;;;24.10;;
41693;SDS011;27377;50.666;9.150;2023-03-07T07:15:00;32.67;;;23.47;;
41693;SDS011;27377;50.666;9.150;2023-03-07T07:17:27;34.33;;;24.33;;
41693;SDS011;27377;50.666;9.150;2023-03-07T07:19:53;34.53;;;24.45;;
41693;SDS011;27377;50.666;9.150;2023-03-07T07:22:18;35.90;;;24.58;;
41693;SDS011;27377;50.666;9.150;2023-03-07T07:24:44;32.17;;;24.30;;
41693;SDS011;27377;50.666;9.150;2023-03-07T07:27:10;35.77;;;24.47;;
41693;SDS011;27377;50.666;9.150;2023-03-07T07:29:35;35.30;;;24.83;;
41693;SDS011;27377;50.666;9.150;2023-03-07T07:32:01;33.78;;;24.27;;
41693;SDS011;27377;50.666;9.150;2023-03-07T07:34:27;34.92;;;24.40;;
41693;SDS011;27377;50.666;9.150;2023-03-07T07:36:52;35.42;;;24.80;;
41693;SDS011;27377;50.666;9.150;2023-03-07T07:39:18;34.72;;;24.30;;
41693;SDS011;27377;50.666;9.150;2023-03-07T07:41:45;34.47;;;23.98;;
41693;SDS011;27377;50.666;9.150;2023-03-07T07:44:12;35.72;;;24.77;;
41693;SDS011;27377;50.666;9.150;2023-03-07T07:46:37;33.70;;;23.75;;
41693;SDS011;27377;50.666;9.150;2023-03-07T07:49:03;33.50;;;23.50;;
41693;SDS011;27377;50.666;9.150;2023-03-07T07:51:28;35.27;;;24.73;;
41693;SDS011;27377;50.666;9.150;2023-03-07T07:53:54;33.47;;;23.90;;
41693;SDS011;27377;50.666;9.150;2023-03-07T07:56:19;34.43;;;23.90;;
41693;SDS011;27377;50.666;9.150;2023-03-07T07:58:45;33.73;;;23.57;;
41693;SDS011;27377;50.666;9.150;2023-03-07T08:01:20;33.80;;;24.27;;
41693;SDS011;27377;50.666;9.150;2023-03-07T08:03:48;32.08;;;23.45;;
41693;SDS011;27377;50.666;9.150;2023-03-07T08:06:17;35.92;;;24.02;;
41693;SDS011;27377;50.666;9.150;2023-03-07T08:08:45;34.03;;;24.52;;
41693;SDS011;27377;50.666;9.150;2023-03-07T08:11:12;30.60;;;22.63;;
41693;SDS011;27377;50.666;9.150;2023-03-07T08:13:38;32.05;;;22.92;;
41693;SDS011;27377;50.666;9.150;2023-03-07T08:16:10;31.80;;;21.87;;
41693;SDS011;27377;50.666;9.150;2023-03-07T08:18:40;32.88;;;22.23;;
41693;SDS011;27377;50.666;9.150;2023-03-07T08:21:06;32.23;;;22.40;;
41693;SDS011;27377;50.666;9.150;2023-03-07T08:23:33;31.13;;;22.40;;
41693;SDS011;27377;50.666;9.150;2023-03-07T08:26:02;33.08;;;22.33;;
41693;SDS011;27377;50.666;9.150;2023-03-07T08:28:29;31.70;;;21.60;;
41693;SDS011;27377;50.666;9.150;2023-03-07T08:30:55;31.43;;;22.03;;
41693;SDS011;27377;50.666;9.150;2023-03-07T08:33:20;31.03;;;22.23;;
41693;SDS011;27377;50.666;9.150;2023-03-07T08:35:46;30.93;;;21.30;;
41693;SDS011;27377;50.666;9.150;2023-03-07T08:38:11;30.07;;;21.40;;
41693;SDS011;27377;50.666;9.150;2023-03-07T08:40:37;33.43;;;21.70;;
41693;SDS011;27377;50.666;9.150;2023-03-07T08:43:02;30.47;;;21.27;;
41693;SDS011;27377;50.666;9.150;2023-03-07T08:45:28;28.88;;;20.90;;
41693;SDS011;27377;50.666;9.150;2023-03-07T08:47:54;29.77;;;20.92;;
41693;SDS011;27377;50.666;9.150;2023-03-07T08:50:21;27.23;;;19.60;;
41693;SDS011;27377;50.666;9.150;2023-03-07T08:52:49;29.50;;;20.30;;
41693;SDS011;27377;50.666;9.150;2023-03-07T08:55:15;30.27;;;20.10;;
41693;SDS011;27377;50.666;9.150;2023-03-07T08:57:41;29.20;;;19.75;;
41693;SDS011;27377;50.666;9.150;2023-03-07T09:00:07;30.55;;;20.92;;
41693;SDS011;27377;50.666;9.150;2023-03-07T09:02:34;28.52;;;19.88;;
41693;SDS011;27377;50.666;9.150;2023-03-07T09:05:00;28.90;;;20.07;;
41693;SDS011;27377;50.666;9.150;2023-03-07T09:07:26;28.77;;;20.25;;
41693;SDS011;27377;50.666;9.150;2023-03-07T09:09:52;27.90;;;20.10;;
41693;SDS011;27377;50.666;9.150;2023-03-07T09:12:17;26.50;;;19.27;;
41693;SDS011;27377;50.666;9.150;2023-03-07T09:14:43;27.55;;;19.85;;
41693;SDS011;27377;50.666;9.150;2023-03-07T09:17:08;28.48;;;19.90;;
41693;SDS011;27377;50.666;9.150;2023-03-07T09:19:34;26.90;;;18.83;;
41693;SDS011;27377;50.666;9.150;2023-03-07T09:21:59;27.40;;;19.25;;
41693;SDS011;27377;50.666;9.150;2023-03-07T09:24:25;28.48;;;19.95;;
41693;SDS011;27377;50.666;9.150;2023-03-07T09:26:50;27.93;;;19.77;;
41693;SDS011;27377;50.666;9.150;2023-03-07T09:29:17;28.48;;;19.73;;
41693;SDS011;27377;50.666;9.150;2023-03-07T09:31:43;26.77;;;19.27;;
41693;SDS011;27377;50.666;9.150;2023-03-07T09:34:08;28.93;;;19.30;;
41693;SDS011;27377;50.666;9.150;2023-03-07T09:36:35;25.92;;;18.67;;
41693;SDS011;27377;50.666;9.150;2023-03-07T09:39:02;27.23;;;19.58;;
41693;SDS011;27377;50.666;9.150;2023-03-07T09:49:39;26.15;;;17.92;;
41693;SDS011;27377;50.666;9.150;2023-03-07T09:52:14;24.10;;;17.80;;
41693;SDS011;27377;50.666;9.150;2023-03-07T09:54:43;24.77;;;17.85;;
41693;SDS011;27377;50.666;9.150;2023-03-07T09:57:33;25.08;;;17.63;;
41693;SDS011;27377;50.666;9.150;2023-03-07T10:00:06;26.83;;;18.10;;
41693;SDS011;27377;50.666;9.150;2023-03-07T10:02:49;25.70;;;17.93;;
41693;SDS011;27377;50.666;9.150;2023-03-07T10:07:51;25.98;;;18.02;;
41693;SDS011;27377;50.666;9.150;2023-03-07T10:10:21;23.65;;;17.35;;
41693;SDS011;27377;50.666;9.150;2023-03-07T10:12:52;25.90;;;16.52;;
41693;SDS011;27377;50.666;9.150;2023-03-07T10:20:58;22.80;;;16.40;;
41693;SDS011;27377;50.666;9.150;2023-03-07T10:23:55;21.65;;;15.60;;
41693;SDS011;27377;50.666;9.150;2023-03-07T10:26:31;20.95;;;15.45;;
41693;SDS011;27377;50.666;9.150;2023-03-07T10:29:00;23.08;;;16.40;;
41693;SDS011;27377;50.666;9.150;2023-03-07T10:31:37;21.92;;;15.70;;
41693;SDS011;27377;50.666;9.150;2023-03-07T10:34:15;23.55;;;16.50;;
41693;SDS011;27377;50.666;9.150;2023-03-07T10:36:46;21.08;;;15.52;;
41693;SDS011;27377;50.666;9.150;2023-03-07T10:40:00;22.45;;;15.40;;
41693;SDS011;27377;50.666;9.150;2023-03-07T10:42:09;22.27;;;15.05;;
41693;SDS011;27377;50.666;9.150;2023-03-07T10:44:35;21.15;;;14.93;;
41693;SDS011;27377;50.666;9.150;2023-03-07T10:47:01;20.25;;;14.60;;
41693;SDS011;27377;50.666;9.150;2023-03-07T10:49:31;21.30;;;15.10;;
41693;SDS011;27377;50.666;9.150;2023-03-07T10:52:16;20.17;;;14.53;;
41693;SDS011;27377;50.666;9.150;2023-03-07T10:54:43;20.05;;;14.52;;
41693;SDS011;27377;50.666;9.150;2023-03-07T10:57:13;21.55;;;14.82;;
41693;SDS011;27377;50.666;9.150;2023-03-07T10:59:41;20.73;;;14.80;;
41693;SDS011;27377;50.666;9.150;2023-03-07T11:04:45;20.67;;;13.93;;
41693;SDS011;27377;50.666;9.150;2023-03-07T11:07:30;19.30;;;13.15;;
41693;SDS011;27377;50.666;9.150;2023-03-07T11:09:59;17.95;;;12.45;;
41693;SDS011;27377;50.666;9.150;2023-03-07T11:12:26;17.80;;;12.27;;
41693;SDS011;27377;50.666;9.150;2023-03-07T11:14:56;15.53;;;10.80;;
41693;SDS011;27377;50.666;9.150;2023-03-07T11:17:42;16.73;;;11.00;;
41693;SDS011;27377;50.666;9.150;2023-03-07T11:20:28;15.73;;;10.20;;
41693;SDS011;27377;50.666;9.150;2023-03-07T11:26:15;13.27;;;9.73;;
41693;SDS011;27377;50.666;9.150;2023-03-07T11:28:45;13.43;;;9.88;;
41693;SDS011;27377;50.666;9.150;2023-03-07T11:34:23;15.80;;;10.27;;
41693;SDS011;27377;50.666;9.150;2023-03-07T11:37:33;15.02;;;9.95;;
41693;SDS011;27377;50.666;9.150;2023-03-07T11:42:40;15.90;;;10.00;;
41693;SDS011;27377;50.666;9.150;2023-03-07T11:45:31;14.02;;;10.10;;
41693;SDS011;27377;50.666;9.150;2023-03-07T11:48:05;14.40;;;9.43;;
41693;SDS011;27377;50.666;9.150;2023-03-07T11:50:46;14.43;;;10.07;;
41693;SDS011;27377;50.666;9.150;2023-03-07T11:53:26;13.15;;;9.77;;
41693;SDS011;27377;50.666;9.150;2023-03-07T12:07:22;14.52;;;9.38;;
41693;SDS011;27377;50.666;9.150;2023-03-07T12:10:06;13.82;;;9.07;;
41693;SDS011;27377;50.666;9.150;2023-03-07T12:15:51;13.80;;;8.83;;
41693;SDS011;27377;50.666;9.150;2023-03-07T12:23:51;13.00;;;8.67;;
41693;SDS011;27377;50.666;9.150;2023-03-07T12:26:35;12.48;;;8.45;;
41693;SDS011;27377;50.666;9.150;2023-03-07T12:29:30;11.55;;;8.45;;
41693;SDS011;27377;50.666;9.150;2023-03-07T12:32:24;12.20;;;8.63;;
41693;SDS011;27377;50.666;9.150;2023-03-07T12:38:03;12.43;;;8.13;;
41693;SDS011;27377;50.666;9.150;2023-03-07T12:40:40;13.30;;;8.43;;
41693;SDS011;27377;50.666;9.150;2023-03-07T12:43:12;13.70;;;8.10;;
41693;SDS011;27377;50.666;9.150;2023-03-07T12:45:48;12.80;;;8.20;;
41693;SDS011;27377;50.666;9.150;2023-03-07T12:48:19;11.50;;;7.97;;
41693;SDS011;27377;50.666;9.150;2023-03-07T12:50:59;12.70;;;8.57;;
41693;SDS011;27377;50.666;9.150;2023-03-07T12:53:48;11.80;;;8.07;;
41693;SDS011;27377;50.666;9.150;2023-03-07T12:56:26;12.23;;;8.32;;
41693;SDS011;27377;50.666;9.150;2023-03-07T12:59:05;12.27;;;8.23;;
41693;SDS011;27377;50.666;9.150;2023-03-07T13:01:37;11.20;;;7.80;;
41693;SDS011;27377;50.666;9.150;2023-03-07T13:04:29;11.77;;;7.88;;
41693;SDS011;27377;50.666;9.150;2023-03-07T13:09:32;13.23;;;7.97;;
41693;SDS011;27377;50.666;9.150;2023-03-07T13:14:56;12.15;;;7.90;;
41693;SDS011;27377;50.666;9.150;2023-03-07T13:27:53;10.93;;;7.15;;
41693;SDS011;27377;50.666;9.150;2023-03-07T13:30:23;12.27;;;7.60;;
41693;SDS011;27377;50.666;9.150;2023-03-07T13:33:00;10.57;;;7.07;;
41693;SDS011;27377;50.666;9.150;2023-03-07T13:35:56;10.00;;;6.93;;
41693;SDS011;27377;50.666;9.150;2023-03-07T13:51:24;10.80;;;6.80;;
41693;SDS011;27377;50.666;9.150;2023-03-07T13:53:52;9.77;;;6.38;;
41693;SDS011;27377;50.666;9.150;2023-03-07T13:56:24;9.90;;;6.60;;
41693;SDS011;27377;50.666;9.150;2023-03-07T13:58:55;11.02;;;6.97;;
41693;SDS011;27377;50.666;9.150;2023-03-07T14:04:01;11.48;;;6.85;;
41693;SDS011;27377;50.666;9.150;2023-03-07T14:06:36;10.10;;;6.87;;
41693;SDS011;27377;50.666;9.150;2023-03-07T14:09:20;9.55;;;6.75;;
41693;SDS011;27377;50.666;9.150;2023-03-07T14:14:35;9.60;;;6.20;;
41693;SDS011;27377;50.666;9.150;2023-03-07T14:19:57;8.95;;;6.03;;
41693;SDS011;27377;50.666;9.150;2023-03-07T14:27:56;8.75;;;5.78;;
41693;SDS011;27377;50.666;9.150;2023-03-07T14:30:23;8.85;;;5.60;;
41693;SDS011;27377;50.666;9.150;2023-03-07T14:32:50;7.88;;;5.47;;
41693;SDS011;27377;50.666;9.150;2023-03-07T14:38:06;9.13;;;5.60;;
41693;SDS011;27377;50.666;9.150;2023-03-07T14:46:06;7.53;;;5.32;;
41693;SDS011;27377;50.666;9.150;2023-03-07T14:49:05;8.80;;;5.75;;
41693;SDS011;27377;50.666;9.150;2023-03-07T14:51:51;8.05;;;5.55;;
41693;SDS011;27377;50.666;9.150;2023-03-07T14:54:18;9.00;;;5.35;;
41693;SDS011;27377;50.666;9.150;2023-03-07T14:56:49;9.45;;;5.90;;
41693;SDS011;27377;50.666;9.150;2023-03-07T14:59:17;7.70;;;5.40;;
41693;SDS011;27377;50.666;9.150;2023-03-07T15:01:43;7.78;;;5.70;;
41693;SDS011;27377;50.666;9.150;2023-03-07T15:07:03;8.82;;;5.93;;
41693;SDS011;27377;50.666;9.150;2023-03-07T15:09:30;9.20;;;5.60;;
41693;SDS011;27377;50.666;9.150;2023-03-07T15:12:04;12.13;;;5.97;;
41693;SDS011;27377;50.666;9.150;2023-03-07T15:17:08;8.50;;;5.90;;
41693;SDS011;27377;50.666;9.150;2023-03-07T15:20:05;9.52;;;5.88;;
41693;SDS011;27377;50.666;9.150;2023-03-07T15:22:35;8.98;;;6.07;;
41693;SDS011;27377;50.666;9.150;2023-03-07T15:25:03;9.70;;;6.25;;
41693;SDS011;27377;50.666;9.150;2023-03-07T15:27:33;9.50;;;5.75;;
41693;SDS011;27377;50.666;9.150;2023-03-07T15:30:02;10.73;;;6.32;;
41693;SDS011;27377;50.666;9.150;2023-03-07T15:32:30;9.95;;;6.15;;
41693;SDS011;27377;50.666;9.150;2023-03-07T15:42:57;8.82;;;6.18;;
41693;SDS011;27377;50.666;9.150;2023-03-07T15:45:39;9.43;;;6.15;;
41693;SDS011;27377;50.666;9.150;2023-03-07T15:48:10;9.38;;;6.20;;
41693;SDS011;27377;50.666;9.150;2023-03-07T15:50:52;9.75;;;6.28;;
41693;SDS011;27377;50.666;9.150;2023-03-07T15:53:22;9.07;;;5.93;;
41693;SDS011;27377;50.666;9.150;2023-03-07T15:55:57;8.85;;;6.00;;
41693;SDS011;27377;50.666;9.150;2023-03-07T15:58:27;8.18;;;6.10;;
41693;SDS011;27377;50.666;9.150;2023-03-07T16:01:16;9.30;;;6.07;;
41693;SDS011;27377;50.666;9.150;2023-03-07T16:03:49;8.85;;;5.78;;
41693;SDS011;27377;50.666;9.150;2023-03-07T16:06:28;9.95;;;6.10;;
41693;SDS011;27377;50.666;9.150;2023-03-07T16:09:07;10.02;;;6.15;;
41693;SDS011;27377;50.666;9.150;2023-03-07T16:11:38;9.98;;;5.75;;
41693;SDS011;27377;50.666;9.150;2023-03-07T16:14:08;9.30;;;6.22;;
41693;SDS011;27377;50.666;9.150;2023-03-07T16:16:44;8.48;;;5.78;;
41693;SDS011;27377;50.666;9.150;2023-03-07T16:19:10;9.83;;;6.17;;
41693;SDS011;27377;50.666;9.150;2023-03-07T16:21:36;11.57;;;6.40;;
41693;SDS011;27377;50.666;9.150;2023-03-07T16:24:01;10.47;;;6.37;;
41693;SDS011;27377;50.666;9.150;2023-03-07T16:26:27;9.13;;;6.23;;
41693;SDS011;27377;50.666;9.150;2023-03-07T16:28:53;10.37;;;6.37;;
41693;SDS011;27377;50.666;9.150;2023-03-07T16:31:18;10.53;;;6.53;;
41693;SDS011;27377;50.666;9.150;2023-03-07T16:33:45;11.25;;;6.90;;
41693;SDS011;27377;50.666;9.150;2023-03-07T16:36:20;10.40;;;6.70;;
41693;SDS011;27377;50.666;9.150;2023-03-07T16:38:46;10.03;;;6.50;;